createdAt,value
2022-12-17T00:00:23.198Z,47.57
2022-12-17T00:03:52.777Z,48.73
2022-12-17T00:07:21.695Z,46.53
2022-12-17T00:10:42.508Z,43.53
2022-12-17T00:14:02.911Z,44.33
2022-12-17T00:17:26.505Z,41.50
2022-12-17T00:20:48.687Z,40.17
2022-12-17T00:24:11.931Z,38.30
2022-12-17T00:27:32.240Z,37.07
2022-12-17T00:30:52.708Z,33.50
2022-12-17T00:34:13.519Z,33.43
2022-12-17T00:37:35.496Z,37.40
2022-12-17T00:40:59.128Z,34.33
2022-12-17T00:44:24.531Z,36.53
2022-12-17T00:47:45.294Z,34.03
2022-12-17T00:51:05.891Z,35.53
2022-12-17T00:54:29.936Z,37.77
2022-12-17T00:57:50.967Z,31.83
2022-12-17T01:01:17.266Z,34.13
2022-12-17T01:04:40.676Z,34.03
2022-12-17T01:08:01.335Z,34.03
2022-12-17T01:11:26.112Z,33.50
2022-12-17T01:14:49.062Z,33.43
2022-12-17T01:18:11.624Z,35.27
2022-12-17T01:21:34.496Z,36.23
2022-12-17T01:24:56.177Z,37.73
2022-12-17T01:28:18.248Z,35.43
2022-12-17T01:31:41.258Z,36.13
2022-12-17T01:35:01.738Z,38.73
2022-12-17T01:38:41.606Z,36.03
2022-12-17T01:42:09.375Z,35.00
2022-12-17T01:45:34.034Z,38.77
2022-12-17T01:49:01.159Z,36.60
2022-12-17T01:52:22.468Z,34.13
2022-12-17T01:55:43.310Z,38.60
2022-12-17T01:59:05.855Z,38.93
2022-12-17T02:02:28.089Z,36.27
2022-12-17T02:05:57.088Z,39.17
2022-12-17T02:09:26.931Z,40.27
2022-12-17T02:12:56.956Z,36.10
2022-12-17T02:16:25.009Z,35.60
2022-12-17T02:20:00.910Z,39.27
2022-12-17T02:23:36.966Z,37.27
2022-12-17T02:27:03.209Z,38.33
2022-12-17T02:30:27.019Z,40.23
2022-12-17T02:33:48.564Z,38.93
2022-12-17T02:37:09.185Z,38.93
2022-12-17T02:40:32.287Z,37.40
2022-12-17T02:43:54.793Z,36.93
2022-12-17T02:47:18.816Z,38.70
2022-12-17T02:50:40.076Z,38.10
2022-12-17T02:54:23.302Z,39.90
2022-12-17T02:57:45.790Z,39.50
2022-12-17T03:01:09.807Z,41.50
2022-12-17T03:04:30.839Z,37.23
2022-12-17T03:07:51.819Z,40.70
2022-12-17T03:11:12.347Z,38.37
2022-12-17T03:14:33.072Z,41.03
2022-12-17T03:17:55.257Z,41.33
2022-12-17T03:21:24.748Z,39.80
2022-12-17T03:24:46.744Z,38.60
2022-12-17T03:28:07.779Z,36.47
2022-12-17T03:31:28.199Z,40.20
2022-12-17T03:34:50.079Z,37.17
2022-12-17T03:38:07.157Z,37.50
2022-12-17T03:41:28.467Z,36.70
2022-12-17T03:44:45.535Z,36.77
2022-12-17T03:48:05.953Z,33.90
2022-12-17T03:51:28.073Z,37.03
2022-12-17T03:54:49.129Z,40.53
2022-12-17T03:58:10.342Z,33.33
2022-12-17T04:01:31.625Z,33.27
2022-12-17T04:04:52.701Z,33.77
2022-12-17T04:08:16.842Z,33.47
2022-12-17T04:11:38.078Z,31.27
2022-12-17T04:14:59.317Z,33.03
2022-12-17T04:18:22.354Z,31.50
2022-12-17T04:21:43.346Z,28.77
2022-12-17T04:25:05.365Z,33.07
2022-12-17T04:28:25.985Z,30.50
2022-12-17T04:31:46.807Z,30.70
2022-12-17T04:35:07.588Z,32.60
2022-12-17T04:38:28.407Z,30.63
2022-12-17T04:41:52.549Z,32.30
2022-12-17T04:45:13.920Z,28.70
2022-12-17T04:48:38.012Z,28.80
2022-12-17T04:52:01.391Z,31.90
2022-12-17T04:55:22.565Z,29.93
2022-12-17T04:58:48.171Z,31.07
2022-12-17T05:02:09.555Z,31.90
2022-12-17T05:05:30.748Z,33.50
2022-12-17T05:08:51.558Z,33.73
2022-12-17T05:12:13.312Z,33.87
2022-12-17T05:15:38.127Z,32.77
2022-12-17T05:19:01.987Z,34.07
2022-12-17T05:22:22.897Z,31.00
2022-12-17T05:25:43.789Z,34.40
2022-12-17T05:29:04.708Z,32.90
2022-12-17T05:32:27.765Z,33.33
2022-12-17T05:35:53.190Z,30.80
2022-12-17T05:39:13.984Z,34.63
2022-12-17T05:42:34.552Z,30.93
2022-12-17T05:45:57.477Z,34.00
2022-12-17T05:49:22.664Z,31.20
2022-12-17T05:52:56.903Z,31.90
2022-12-17T05:56:17.701Z,32.23
2022-12-17T05:59:49.847Z,29.93
2022-12-17T06:03:17.374Z,32.17
2022-12-17T06:06:39.263Z,31.80
2022-12-17T06:09:59.809Z,30.63
2022-12-17T06:13:20.534Z,34.77
2022-12-17T06:16:41.175Z,32.33
2022-12-17T06:20:15.852Z,32.57
2022-12-17T06:23:52.918Z,33.37
2022-12-17T06:27:13.650Z,32.33
2022-12-17T06:30:45.794Z,30.43
2022-12-17T06:34:09.869Z,32.47
2022-12-17T06:37:30.887Z,32.90
2022-12-17T06:40:52.674Z,35.50
2022-12-17T06:44:18.925Z,31.97
2022-12-17T06:47:41.988Z,31.67
2022-12-17T06:51:03.231Z,31.80
2022-12-17T06:54:24.046Z,30.57
2022-12-17T06:57:50.560Z,32.30
2022-12-17T07:01:11.838Z,29.23
2022-12-17T07:04:35.962Z,29.47
2022-12-17T07:07:57.220Z,29.30
2022-12-17T07:11:18.534Z,28.83
2022-12-17T07:14:40.634Z,30.17
2022-12-17T07:18:03.696Z,30.97
2022-12-17T07:21:27.740Z,32.57
2022-12-17T07:24:48.742Z,33.73
2022-12-17T07:28:13.402Z,33.70
2022-12-17T07:31:45.387Z,30.70
2022-12-17T07:35:08.288Z,30.03
2022-12-17T07:38:30.724Z,31.37
2022-12-17T07:41:54.789Z,31.70
2022-12-17T07:45:15.318Z,32.27
2022-12-17T07:48:37.538Z,32.20
2022-12-17T07:51:58.040Z,34.47
2022-12-17T07:55:18.566Z,34.53
2022-12-17T07:58:39.181Z,34.40
2022-12-17T08:02:00.139Z,33.13
2022-12-17T08:05:22.854Z,33.83
2022-12-17T08:08:43.589Z,35.07
2022-12-17T08:12:04.557Z,29.77
2022-12-17T08:15:26.362Z,31.40
2022-12-17T08:18:47.365Z,30.37
2022-12-17T08:22:09.592Z,29.67
2022-12-17T08:25:30.627Z,30.57
2022-12-17T08:28:53.746Z,32.30
2022-12-17T08:32:14.539Z,33.27
2022-12-17T08:35:35.547Z,35.13
2022-12-17T08:38:57.669Z,30.60
2022-12-17T08:42:25.284Z,31.03
2022-12-17T08:45:46.142Z,30.07
2022-12-17T08:49:06.671Z,30.60
2022-12-17T08:52:27.506Z,30.57
2022-12-17T08:55:49.639Z,30.13
2022-12-17T08:59:10.405Z,29.80
2022-12-17T09:02:31.138Z,31.23
2022-12-17T09:05:52.078Z,31.10
2022-12-17T09:09:12.983Z,29.37
2022-12-17T09:12:35.472Z,28.10
2022-12-17T09:15:56.129Z,30.63
2022-12-17T09:19:17.107Z,30.50
2022-12-17T09:22:37.939Z,30.80
2022-12-17T09:25:58.498Z,31.87
2022-12-17T09:29:22.729Z,32.30
2022-12-17T09:32:43.457Z,34.47
2022-12-17T09:36:04.219Z,31.50
2022-12-17T09:39:24.883Z,30.20
2022-12-17T09:42:58.248Z,32.43
2022-12-17T09:46:28.461Z,30.40
2022-12-17T09:49:49.522Z,30.97
2022-12-17T09:53:25.371Z,32.30
2022-12-17T09:56:49.986Z,33.37
2022-12-17T10:00:13.346Z,33.33
2022-12-17T10:03:38.918Z,35.07
2022-12-17T10:06:59.848Z,34.80
2022-12-17T10:10:34.948Z,35.47
2022-12-17T10:13:55.788Z,35.20
2022-12-17T10:17:16.651Z,34.53
2022-12-17T10:20:43.267Z,35.57
2022-12-17T10:24:06.559Z,35.90
2022-12-17T10:27:29.044Z,33.13
2022-12-17T10:30:51.167Z,33.47
2022-12-17T10:34:20.620Z,35.03
2022-12-17T10:37:46.431Z,33.40
2022-12-17T10:41:18.478Z,34.10
2022-12-17T10:44:48.477Z,34.43
2022-12-17T10:48:09.026Z,35.77
2022-12-17T10:51:40.310Z,33.27
2022-12-17T10:55:05.010Z,35.17
2022-12-17T10:58:33.646Z,36.23
2022-12-17T11:01:58.319Z,37.33
2022-12-17T11:05:21.892Z,38.20
2022-12-17T11:08:45.735Z,38.87
2022-12-17T11:12:11.106Z,41.27
2022-12-17T11:15:44.489Z,36.43
2022-12-17T11:19:14.897Z,36.17
2022-12-17T11:22:50.420Z,37.33
2022-12-17T11:26:14.568Z,36.87
2022-12-17T11:29:36.727Z,38.57
2022-12-17T11:33:27.012Z,38.60
2022-12-17T11:36:56.514Z,37.67
2022-12-17T11:40:30.642Z,36.77
2022-12-17T11:44:00.931Z,39.30
2022-12-17T11:47:35.999Z,39.97
2022-12-17T11:51:03.242Z,37.00
2022-12-17T11:54:33.421Z,40.50
2022-12-17T11:58:08.365Z,39.67
2022-12-17T12:01:39.559Z,38.40
2022-12-17T12:05:29.809Z,38.73
2022-12-17T12:08:55.474Z,38.43
2022-12-17T12:12:24.131Z,37.70
2022-12-17T12:15:55.305Z,40.57
2022-12-17T12:19:25.163Z,39.40
2022-12-17T12:22:56.868Z,40.00
2022-12-17T12:26:27.693Z,40.17
2022-12-17T12:29:55.526Z,38.30
2022-12-17T12:33:36.145Z,37.73
2022-12-17T12:37:01.692Z,37.17
2022-12-17T12:40:33.446Z,36.83
2022-12-17T12:43:59.654Z,35.83
2022-12-17T12:47:28.819Z,35.83
2022-12-17T12:51:01.014Z,35.13
2022-12-17T12:54:42.316Z,34.33
2022-12-17T12:58:18.587Z,33.73
2022-12-17T13:01:51.942Z,39.00
2022-12-17T13:05:19.771Z,33.97
2022-12-17T13:08:29.617Z,35.17
2022-12-17T13:11:39.180Z,34.63
2022-12-17T13:14:53.373Z,35.30
2022-12-17T13:18:07.977Z,33.77
2022-12-17T13:21:27.512Z,35.13
2022-12-17T13:24:32.535Z,34.47
2022-12-17T13:27:40.643Z,36.20
2022-12-17T13:30:45.018Z,36.43
2022-12-17T13:33:57.863Z,34.83
2022-12-17T13:37:06.710Z,33.73
2022-12-17T13:40:26.704Z,33.27
2022-12-17T13:43:41.531Z,31.90
2022-12-17T13:46:51.948Z,31.87
2022-12-17T13:50:32.269Z,31.53
2022-12-17T13:53:23.896Z,30.87
2022-12-17T13:56:29.346Z,31.93
2022-12-17T13:59:32.528Z,32.60
2022-12-17T14:02:39.385Z,33.17
2022-12-17T14:05:46.014Z,34.50
2022-12-17T14:08:52.358Z,35.77
2022-12-17T14:12:13.724Z,32.43
2022-12-17T14:15:28.587Z,33.93
2022-12-17T14:18:33.059Z,33.90
2022-12-17T14:21:38.452Z,30.90
2022-12-17T14:24:41.485Z,32.87
2022-12-17T14:27:54.544Z,32.23
2022-12-17T14:34:41.534Z,33.63
2022-12-17T14:37:48.280Z,35.63
2022-12-17T14:40:54.961Z,32.73
2022-12-17T14:43:59.902Z,33.73
2022-12-17T14:47:16.909Z,33.07
2022-12-17T14:50:32.107Z,31.50
2022-12-17T14:53:36.391Z,32.57
2022-12-17T14:56:40.109Z,31.67
2022-12-17T14:59:43.426Z,32.10
2022-12-17T15:02:52.886Z,33.80
2022-12-17T15:05:59.981Z,35.83
2022-12-17T15:09:05.488Z,34.30
2022-12-17T15:12:08.938Z,35.20
2022-12-17T15:15:14.682Z,34.40
2022-12-17T15:18:20.906Z,33.00
2022-12-17T15:21:32.804Z,34.47
2022-12-17T15:24:36.034Z,34.13
2022-12-17T15:27:41.910Z,33.93
2022-12-17T15:30:45.856Z,32.83
2022-12-17T15:33:48.886Z,32.73
2022-12-17T15:36:53.251Z,34.93
2022-12-17T15:39:56.996Z,31.53
2022-12-17T15:43:12.704Z,32.17
2022-12-17T15:46:16.351Z,30.00
2022-12-17T15:49:19.500Z,30.37
2022-12-17T15:52:24.281Z,28.90
2022-12-17T15:55:27.941Z,29.63
2022-12-17T15:58:31.531Z,30.57
2022-12-17T16:01:35.360Z,29.50
2022-12-17T16:04:38.979Z,28.90
2022-12-17T16:07:44.284Z,29.40
2022-12-17T16:10:47.291Z,29.90
2022-12-17T16:13:55.092Z,30.63
2022-12-17T16:16:58.476Z,32.53
2022-12-17T16:20:01.671Z,29.97
2022-12-17T16:23:05.975Z,28.87
2022-12-17T16:26:11.986Z,31.73
2022-12-17T16:29:15.313Z,32.27
2022-12-17T16:32:18.725Z,31.37
2022-12-17T16:35:23.692Z,30.47
2022-12-17T16:38:28.640Z,31.47
2022-12-17T16:41:34.186Z,32.10
2022-12-17T16:44:37.187Z,33.03
2022-12-17T16:47:40.154Z,31.17
2022-12-17T16:50:43.196Z,30.83
2022-12-17T16:53:50.422Z,34.60
2022-12-17T16:56:54.818Z,32.30
2022-12-17T16:59:57.825Z,31.80
2022-12-17T17:03:01.606Z,34.97
2022-12-17T17:06:07.698Z,32.33
2022-12-17T17:09:13.650Z,31.07
2022-12-17T17:12:19.055Z,31.97
2022-12-17T17:15:23.305Z,31.43
2022-12-17T17:18:26.842Z,31.07
2022-12-17T17:21:35.191Z,32.20
2022-12-17T17:24:39.626Z,33.07
2022-12-17T17:27:45.768Z,32.93
2022-12-17T17:30:49.402Z,29.93
2022-12-17T17:33:55.811Z,29.10
2022-12-17T17:36:58.812Z,31.10
2022-12-17T17:40:03.415Z,30.77
2022-12-17T17:43:10.549Z,35.30
2022-12-17T17:46:17.696Z,31.60
2022-12-17T17:49:20.761Z,32.33
2022-12-17T18:08:39.033Z,25.43
2022-12-17T18:11:45.113Z,27.87
2022-12-17T18:15:12.756Z,26.60
2022-12-17T18:18:14.684Z,26.77
2022-12-17T18:21:23.207Z,27.87
2022-12-17T18:24:28.169Z,24.73
2022-12-17T18:27:32.042Z,25.67
2022-12-17T18:30:39.153Z,25.67
2022-12-17T18:33:45.852Z,29.20
2022-12-17T18:36:51.134Z,28.27
2022-12-17T18:39:56.156Z,28.00
2022-12-17T18:43:17.625Z,28.60
2022-12-17T18:46:23.489Z,29.77
2022-12-17T18:49:28.183Z,29.50
2022-12-17T18:52:32.471Z,30.40
2022-12-17T18:55:40.789Z,29.50
2022-12-17T18:58:45.201Z,28.73
2022-12-17T19:01:50.006Z,26.40
2022-12-17T19:04:53.609Z,27.43
2022-12-17T19:07:57.275Z,25.87
2022-12-17T19:11:07.139Z,25.47
2022-12-17T19:14:13.526Z,27.10
2022-12-17T19:17:16.983Z,25.87
2022-12-17T19:20:20.779Z,25.40
2022-12-17T19:23:26.598Z,29.03
2022-12-17T19:26:34.491Z,25.83
2022-12-17T19:29:39.061Z,23.37
2022-12-17T19:32:46.135Z,22.33
2022-12-17T19:35:49.951Z,26.27
2022-12-17T19:38:54.783Z,21.97
2022-12-17T19:41:59.235Z,23.40
2022-12-17T19:45:02.461Z,24.43
2022-12-17T19:48:05.734Z,24.40
2022-12-17T19:51:11.222Z,25.27
2022-12-17T19:54:15.687Z,22.40
2022-12-17T19:57:19.990Z,23.40
2022-12-17T20:00:23.366Z,23.63
2022-12-17T20:03:26.416Z,23.70
2022-12-17T20:06:33.098Z,26.10
2022-12-17T20:09:36.096Z,23.87
2022-12-17T20:12:40.424Z,24.67
2022-12-17T20:15:43.460Z,23.87
2022-12-17T20:18:46.492Z,25.00
2022-12-17T20:21:49.990Z,25.70
2022-12-17T20:24:53.147Z,24.27
2022-12-17T20:27:57.975Z,24.30
2022-12-17T20:31:01.915Z,24.00
2022-12-17T20:34:07.358Z,23.43
2022-12-17T20:37:10.313Z,21.90
2022-12-17T20:40:13.517Z,23.07
2022-12-17T20:43:17.826Z,24.37
2022-12-17T20:46:22.529Z,24.77
2022-12-17T20:49:25.594Z,23.43
2022-12-17T20:52:28.629Z,21.67
2022-12-17T20:55:31.665Z,26.03
2022-12-17T20:58:37.243Z,23.57
2022-12-17T21:01:40.717Z,24.47
2022-12-17T21:04:44.411Z,24.07
2022-12-17T21:07:47.477Z,23.03
2022-12-17T21:10:56.861Z,26.20
2022-12-17T21:14:04.754Z,22.40
2022-12-17T21:17:08.043Z,22.80
2022-12-17T21:20:12.196Z,25.90
2022-12-17T21:23:15.458Z,24.23
2022-12-17T21:26:21.560Z,24.53
2022-12-17T21:29:25.915Z,25.63
2022-12-17T21:32:33.663Z,24.83
2022-12-17T21:35:37.077Z,21.47
2022-12-17T21:38:40.665Z,22.83
2022-12-17T21:42:03.370Z,22.73
2022-12-17T21:45:09.376Z,24.33
2022-12-17T21:48:15.237Z,22.43
2022-12-17T21:51:18.689Z,22.10
2022-12-17T21:54:22.017Z,24.10
2022-12-17T21:57:25.158Z,22.77
2022-12-17T22:00:29.590Z,22.53
2022-12-17T22:03:32.583Z,22.27
2022-12-17T22:06:51.429Z,23.23
2022-12-17T22:10:33.339Z,23.43
2022-12-17T22:13:43.048Z,23.53
2022-12-17T22:16:49.878Z,22.53
2022-12-17T22:19:53.211Z,23.80
2022-12-17T22:22:56.404Z,22.33
2022-12-17T22:26:00.422Z,25.07
2022-12-17T22:29:04.467Z,25.03
2022-12-17T22:32:29.087Z,24.63
2022-12-17T22:36:52.297Z,25.10
2022-12-17T22:42:06.228Z,24.23
2022-12-17T22:44:49.039Z,25.47
2022-12-17T22:46:08.682Z,24.37
2022-12-17T22:49:13.763Z,25.17
2022-12-17T22:52:18.240Z,23.80
2022-12-17T22:55:23.365Z,25.33
2022-12-17T22:58:27.662Z,25.07
2022-12-17T23:01:32.032Z,24.50
2022-12-17T23:04:37.207Z,23.70
2022-12-17T23:07:41.174Z,21.23
2022-12-17T23:10:44.870Z,22.20
2022-12-17T23:13:48.731Z,22.43
2022-12-17T23:16:52.569Z,21.57
2022-12-17T23:19:57.544Z,23.23
2022-12-17T23:23:01.713Z,23.63
2022-12-17T23:26:09.779Z,22.00
2022-12-17T23:29:19.754Z,22.27
2022-12-17T23:32:23.859Z,22.83
2022-12-17T23:35:28.810Z,23.00
2022-12-17T23:38:34.038Z,24.73
2022-12-17T23:41:37.616Z,22.07
2022-12-17T23:44:41.145Z,22.33
2022-12-17T23:47:46.008Z,24.90
2022-12-17T23:50:50.486Z,28.10
2022-12-17T23:54:02.710Z,26.03
2022-12-17T23:57:06.272Z,22.90
